createdAt,value
2022-08-31T00:00:02.940Z,6.53
2022-08-31T00:02:50.387Z,6.47
2022-08-31T00:05:19.652Z,6.00
2022-08-31T00:07:47.456Z,6.43
2022-08-31T00:10:18.878Z,6.17
2022-08-31T00:12:50.116Z,6.60
2022-08-31T00:15:20.351Z,6.27
2022-08-31T00:17:53.845Z,6.83
2022-08-31T00:20:33.556Z,6.80
2022-08-31T00:23:02.722Z,6.80
2022-08-31T00:25:30.697Z,7.00
2022-08-31T00:27:58.503Z,6.93
2022-08-31T00:30:26.845Z,6.93
2022-08-31T00:32:54.739Z,7.10
2022-08-31T00:35:28.291Z,6.53
2022-08-31T00:37:56.527Z,6.67
2022-08-31T00:40:24.727Z,6.60
2022-08-31T00:42:53.091Z,6.77
2022-08-31T00:45:22.689Z,6.40
2022-08-31T00:47:52.251Z,6.53
2022-08-31T00:50:21.620Z,6.63
2022-08-31T00:52:54.522Z,6.50
2022-08-31T00:55:25.561Z,6.10
2022-08-31T00:57:56.807Z,6.93
2022-08-31T01:00:28.084Z,6.90
2022-08-31T01:02:57.573Z,6.93
2022-08-31T01:05:26.469Z,7.23
2022-08-31T01:07:56.735Z,7.50
2022-08-31T01:10:29.120Z,7.83
2022-08-31T01:12:59.224Z,7.23
2022-08-31T01:15:28.874Z,7.07
2022-08-31T01:18:00.140Z,8.10
2022-08-31T01:20:34.334Z,7.50
2022-08-31T01:23:10.554Z,7.70
2022-08-31T01:25:41.274Z,7.20
2022-08-31T01:28:10.092Z,7.20
2022-08-31T01:30:39.778Z,7.53
2022-08-31T01:33:09.219Z,7.80
2022-08-31T01:35:37.405Z,7.20
2022-08-31T01:38:06.566Z,7.47
2022-08-31T01:40:37.781Z,7.17
2022-08-31T01:43:05.918Z,6.97
2022-08-31T01:45:33.732Z,7.03
2022-08-31T01:48:02.260Z,7.57
2022-08-31T01:50:30.260Z,7.40
2022-08-31T01:52:58.724Z,7.17
2022-08-31T01:55:27.976Z,7.73
2022-08-31T01:57:58.034Z,7.53
2022-08-31T02:00:46.679Z,7.67
2022-08-31T02:03:14.770Z,7.20
2022-08-31T02:05:42.633Z,7.10
2022-08-31T02:08:12.086Z,8.10
2022-08-31T02:10:42.657Z,8.20
2022-08-31T02:13:11.269Z,7.80
2022-08-31T02:15:39.978Z,7.43
2022-08-31T02:18:08.370Z,7.17
2022-08-31T02:20:37.270Z,7.10
2022-08-31T02:23:05.218Z,7.43
2022-08-31T02:25:33.066Z,6.83
2022-08-31T02:28:05.130Z,6.43
2022-08-31T02:30:32.954Z,6.87
2022-08-31T02:33:00.853Z,6.37
2022-08-31T02:35:28.704Z,6.80
2022-08-31T02:37:57.062Z,7.17
2022-08-31T02:40:25.714Z,6.57
2022-08-31T02:42:54.320Z,7.80
2022-08-31T02:45:28.551Z,7.53
2022-08-31T02:48:03.404Z,7.23
2022-08-31T02:50:41.056Z,7.93
2022-08-31T02:53:09.651Z,7.60
2022-08-31T02:55:38.265Z,8.80
2022-08-31T02:58:06.793Z,8.33
2022-08-31T03:00:36.246Z,8.07
2022-08-31T03:03:04.652Z,8.23
2022-08-31T03:05:32.826Z,8.40
2022-08-31T03:08:00.636Z,7.53
2022-08-31T03:10:28.416Z,7.93
2022-08-31T03:12:56.584Z,8.40
2022-08-31T03:15:26.485Z,8.30
2022-08-31T03:17:55.698Z,7.87
2022-08-31T03:20:26.817Z,8.40
2022-08-31T03:22:55.116Z,8.00
2022-08-31T03:25:24.084Z,7.20
2022-08-31T03:27:52.011Z,7.77
2022-08-31T03:30:22.704Z,7.63
2022-08-31T03:33:05.779Z,7.33
2022-08-31T03:35:35.738Z,7.70
2022-08-31T03:38:03.587Z,7.53
2022-08-31T03:40:31.812Z,7.73
2022-08-31T03:43:00.455Z,7.77
2022-08-31T03:45:31.993Z,7.47
2022-08-31T03:48:00.637Z,8.03
2022-08-31T03:50:29.851Z,8.10
2022-08-31T03:53:04.128Z,8.37
2022-08-31T03:55:32.473Z,7.93
2022-08-31T03:58:01.268Z,7.73
2022-08-31T04:00:29.400Z,7.70
2022-08-31T04:03:03.127Z,7.43
2022-08-31T04:05:34.621Z,7.53
2022-08-31T04:08:23.821Z,7.90
2022-08-31T04:11:15.271Z,6.90
2022-08-31T04:14:03.396Z,7.37
2022-08-31T04:16:51.458Z,7.77
2022-08-31T04:19:43.059Z,7.57
2022-08-31T04:22:44.768Z,7.93
2022-08-31T04:25:43.456Z,7.47
2022-08-31T04:28:12.164Z,7.50
2022-08-31T04:30:42.205Z,7.90
2022-08-31T04:33:11.914Z,8.20
2022-08-31T04:35:40.735Z,7.77
2022-08-31T04:38:12.176Z,8.43
2022-08-31T04:40:42.948Z,8.27
2022-08-31T04:43:11.755Z,8.47
2022-08-31T04:45:43.926Z,8.40
2022-08-31T04:48:13.992Z,7.87
2022-08-31T04:50:43.235Z,8.00
2022-08-31T04:53:13.059Z,7.77
2022-08-31T04:55:41.917Z,8.60
2022-08-31T04:58:12.981Z,8.30
2022-08-31T05:00:43.327Z,7.63
2022-08-31T05:03:28.319Z,8.23
2022-08-31T05:05:56.904Z,7.97
2022-08-31T05:08:26.240Z,7.90
2022-08-31T05:10:54.470Z,7.70
2022-08-31T05:13:22.261Z,7.53
2022-08-31T05:15:50.572Z,8.20
2022-08-31T05:18:22.800Z,7.90
2022-08-31T05:20:56.767Z,8.33
2022-08-31T05:23:25.889Z,8.50
2022-08-31T05:25:53.781Z,8.50
2022-08-31T05:28:23.515Z,8.60
2022-08-31T05:30:51.431Z,8.80
2022-08-31T05:33:36.592Z,8.13
2022-08-31T05:36:05.311Z,8.10
2022-08-31T05:38:35.477Z,8.90
2022-08-31T05:41:06.063Z,7.77
2022-08-31T05:43:34.601Z,8.13
2022-08-31T05:46:05.634Z,9.00
2022-08-31T05:48:37.767Z,8.47
2022-08-31T05:51:11.415Z,8.63
2022-08-31T05:53:43.229Z,8.40
2022-08-31T05:56:14.152Z,8.33
2022-08-31T05:58:44.459Z,8.30
2022-08-31T06:01:15.975Z,8.30
2022-08-31T06:04:00.797Z,8.73
2022-08-31T06:06:29.173Z,8.40
2022-08-31T06:08:59.196Z,8.27
2022-08-31T06:11:30.327Z,8.43
2022-08-31T06:14:01.226Z,7.93
2022-08-31T06:16:30.226Z,8.50
2022-08-31T06:18:58.827Z,8.27
2022-08-31T06:21:30.871Z,8.50
2022-08-31T06:24:01.622Z,8.87
2022-08-31T06:26:32.875Z,7.47
2022-08-31T06:29:02.653Z,8.87
2022-08-31T06:31:33.935Z,9.47
2022-08-31T06:34:03.878Z,8.20
2022-08-31T06:36:49.848Z,8.60
2022-08-31T06:39:53.758Z,8.30
2022-08-31T06:42:46.660Z,8.87
2022-08-31T06:45:29.927Z,8.90
2022-08-31T06:48:17.971Z,8.43
2022-08-31T06:50:45.863Z,8.63
2022-08-31T06:53:14.042Z,8.53
2022-08-31T06:56:06.651Z,8.60
2022-08-31T06:59:07.716Z,7.20
2022-08-31T07:01:54.446Z,7.93
2022-08-31T07:04:35.989Z,7.97
2022-08-31T07:07:05.518Z,7.67
2022-08-31T07:09:33.960Z,8.30
2022-08-31T07:12:03.745Z,7.60
2022-08-31T07:14:31.632Z,7.53
2022-08-31T07:17:02.908Z,7.20
2022-08-31T07:19:31.954Z,7.83
2022-08-31T07:22:02.039Z,7.30
2022-08-31T07:24:33.251Z,8.07
2022-08-31T07:27:05.322Z,8.17
2022-08-31T07:29:47.917Z,7.57
2022-08-31T07:32:18.251Z,7.47
2022-08-31T07:34:46.567Z,8.27
2022-08-31T07:37:58.235Z,7.00
2022-08-31T07:40:48.431Z,6.83
2022-08-31T07:43:18.325Z,7.87
2022-08-31T07:45:46.905Z,7.30
2022-08-31T07:48:20.636Z,7.10
2022-08-31T07:51:24.269Z,7.03
2022-08-31T07:54:15.428Z,7.50
2022-08-31T07:57:03.203Z,6.77
2022-08-31T07:59:34.949Z,7.03
2022-08-31T08:02:03.989Z,7.10
2022-08-31T08:04:38.947Z,7.27
2022-08-31T08:07:25.287Z,7.10
2022-08-31T08:10:21.339Z,7.43
2022-08-31T08:13:12.439Z,7.10
2022-08-31T08:15:52.728Z,7.17
2022-08-31T08:18:40.671Z,7.00
2022-08-31T08:21:09.070Z,7.00
2022-08-31T08:23:37.470Z,7.87
2022-08-31T08:26:44.220Z,7.50
2022-08-31T08:29:35.827Z,7.67
2022-08-31T08:32:08.615Z,6.93
2022-08-31T08:34:43.329Z,7.20
2022-08-31T08:37:11.884Z,7.27
2022-08-31T08:39:40.243Z,7.00
2022-08-31T08:42:15.685Z,7.60
2022-08-31T08:44:45.084Z,7.00
2022-08-31T08:47:19.008Z,6.60
2022-08-31T08:49:54.956Z,6.57
2022-08-31T08:52:28.515Z,6.80
2022-08-31T08:54:58.236Z,6.77
2022-08-31T08:57:28.809Z,7.43
2022-08-31T09:00:01.134Z,7.00
2022-08-31T09:02:36.636Z,7.03
2022-08-31T09:05:17.075Z,7.07
2022-08-31T09:08:18.730Z,7.87
2022-08-31T09:10:57.863Z,7.40
2022-08-31T09:13:36.197Z,7.90
2022-08-31T09:16:22.075Z,7.70
2022-08-31T09:18:56.262Z,7.47
2022-08-31T09:21:28.841Z,7.80
2022-08-31T09:24:02.355Z,7.60
2022-08-31T09:26:54.267Z,7.10
2022-08-31T09:29:33.801Z,8.97
2022-08-31T09:32:06.339Z,8.67
2022-08-31T09:34:38.583Z,8.10
2022-08-31T09:37:17.285Z,8.77
2022-08-31T09:39:48.497Z,8.07
2022-08-31T09:42:28.967Z,7.80
2022-08-31T09:45:00.027Z,7.90
2022-08-31T09:47:48.482Z,8.03
2022-08-31T09:50:33.935Z,7.87
2022-08-31T09:53:39.062Z,8.87
2022-08-31T09:56:16.779Z,8.40
2022-08-31T09:58:50.772Z,7.47
2022-08-31T10:01:23.292Z,8.57
2022-08-31T10:03:52.851Z,8.17
2022-08-31T10:06:46.147Z,8.60
2022-08-31T10:09:28.002Z,8.40
2022-08-31T10:11:59.751Z,8.07
2022-08-31T10:14:37.035Z,8.80
2022-08-31T10:17:11.327Z,8.20
2022-08-31T10:19:54.385Z,9.03
2022-08-31T10:22:31.265Z,8.47
2022-08-31T10:25:18.275Z,8.57
2022-08-31T10:27:48.987Z,8.57
2022-08-31T10:30:27.461Z,9.03
2022-08-31T10:33:02.229Z,8.77
2022-08-31T10:35:37.540Z,9.10
2022-08-31T10:38:20.145Z,9.07
2022-08-31T10:40:55.287Z,8.20
2022-08-31T10:43:29.230Z,8.33
2022-08-31T10:45:59.918Z,8.43
2022-08-31T10:48:28.651Z,9.30
2022-08-31T10:51:09.155Z,8.93
2022-08-31T10:53:59.063Z,8.47
2022-08-31T10:56:41.324Z,7.97
2022-08-31T10:59:20.879Z,8.07
2022-08-31T11:01:56.799Z,8.00
2022-08-31T11:05:03.491Z,8.07
2022-08-31T11:07:40.761Z,8.83
2022-08-31T11:10:22.408Z,8.47
2022-08-31T11:12:57.618Z,8.40
2022-08-31T11:15:51.632Z,8.37
2022-08-31T11:18:44.404Z,7.80
2022-08-31T11:21:39.636Z,8.63
2022-08-31T11:24:31.571Z,9.43
2022-08-31T11:27:11.913Z,9.13
2022-08-31T11:29:46.263Z,9.07
2022-08-31T11:32:21.199Z,8.77
2022-08-31T11:34:53.425Z,9.23
2022-08-31T11:37:55.466Z,9.10
2022-08-31T11:40:59.534Z,9.40
2022-08-31T11:43:53.754Z,9.73
2022-08-31T11:46:41.580Z,9.37
2022-08-31T11:49:11.199Z,9.17
2022-08-31T11:51:47.989Z,9.70
2022-08-31T11:54:41.546Z,9.67
2022-08-31T11:57:15.515Z,9.83
2022-08-31T11:59:46.967Z,10.00
2022-08-31T12:02:45.243Z,10.97
2022-08-31T12:05:13.551Z,10.30
2022-08-31T12:07:46.263Z,9.80
2022-08-31T12:10:44.502Z,9.70
2022-08-31T12:13:25.135Z,10.47
2022-08-31T12:16:05.131Z,10.67
2022-08-31T12:18:46.372Z,10.77
2022-08-31T12:21:43.484Z,10.50
2022-08-31T12:24:24.508Z,10.77
2022-08-31T12:27:11.731Z,10.37
2022-08-31T12:29:41.627Z,10.10
2022-08-31T12:32:26.853Z,9.93
2022-08-31T12:35:05.526Z,10.83
2022-08-31T12:37:35.607Z,10.97
2022-08-31T12:40:17.825Z,10.60
2022-08-31T12:43:03.835Z,11.83
2022-08-31T12:46:06.975Z,9.77
2022-08-31T12:48:46.852Z,10.40
2022-08-31T12:51:26.404Z,10.20
2022-08-31T12:54:13.456Z,9.67
2022-08-31T12:56:48.822Z,10.53
2022-08-31T12:59:51.299Z,9.77
2022-08-31T13:02:20.431Z,10.97
2022-08-31T13:04:50.482Z,10.67
2022-08-31T13:07:22.849Z,10.23
2022-08-31T13:10:03.920Z,10.13
2022-08-31T13:12:31.797Z,10.60
2022-08-31T13:14:59.628Z,10.03
2022-08-31T13:17:27.792Z,10.07
2022-08-31T13:19:59.579Z,9.87
2022-08-31T13:22:32.917Z,9.50
2022-08-31T13:25:13.856Z,9.70
2022-08-31T13:27:49.095Z,10.40
2022-08-31T13:30:20.116Z,10.93
2022-08-31T13:32:51.184Z,8.67
2022-08-31T13:35:24.694Z,9.20
2022-08-31T13:38:04.001Z,10.63
2022-08-31T13:40:35.512Z,9.65
2022-08-31T13:43:04.396Z,9.03
2022-08-31T13:45:34.530Z,8.93
2022-08-31T13:48:10.012Z,8.50
2022-08-31T13:50:52.591Z,8.80
2022-08-31T13:53:39.371Z,8.75
2022-08-31T13:56:44.011Z,9.20
2022-08-31T13:59:35.400Z,9.40
2022-08-31T14:02:27.552Z,8.60
2022-08-31T14:05:03.492Z,7.55
2022-08-31T14:07:54.188Z,8.80
2022-08-31T14:10:26.251Z,8.65
2022-08-31T14:12:58.419Z,8.05
2022-08-31T14:15:36.179Z,8.10
2022-08-31T14:18:26.006Z,8.48
2022-08-31T14:21:22.692Z,8.95
2022-08-31T14:23:54.387Z,8.43
2022-08-31T14:26:28.007Z,9.23
2022-08-31T14:29:00.316Z,9.02
2022-08-31T14:31:33.824Z,9.07
2022-08-31T14:34:20.111Z,9.30
2022-08-31T14:36:52.652Z,9.55
2022-08-31T14:39:24.272Z,9.23
2022-08-31T14:41:54.068Z,8.70
2022-08-31T14:44:25.420Z,7.50
2022-08-31T14:46:53.316Z,7.85
2022-08-31T14:49:21.291Z,7.65
2022-08-31T14:51:49.208Z,7.80
2022-08-31T14:54:17.979Z,7.38
2022-08-31T14:56:50.403Z,7.25
2022-08-31T14:59:21.251Z,7.88
2022-08-31T15:01:50.756Z,7.45
2022-08-31T15:04:21.699Z,6.28
2022-08-31T15:06:52.569Z,5.05
2022-08-31T15:09:21.663Z,6.03
2022-08-31T15:11:51.340Z,6.28
2022-08-31T15:14:19.278Z,6.28
2022-08-31T15:16:49.432Z,6.80
2022-08-31T15:19:18.937Z,6.25
2022-08-31T15:21:52.661Z,5.20
2022-08-31T15:24:26.704Z,5.22
2022-08-31T15:26:59.881Z,5.70
2022-08-31T15:29:28.979Z,5.90
2022-08-31T15:31:58.607Z,5.70
2022-08-31T15:34:30.188Z,5.88
2022-08-31T15:37:01.226Z,6.18
2022-08-31T15:39:32.575Z,6.15
2022-08-31T15:42:02.846Z,6.32
2022-08-31T15:44:30.757Z,6.53
2022-08-31T15:47:16.023Z,6.68
2022-08-31T15:49:44.542Z,6.25
2022-08-31T15:52:13.035Z,6.57
2022-08-31T15:54:42.017Z,6.78
2022-08-31T15:57:11.240Z,6.80
2022-08-31T15:59:41.091Z,5.80
2022-08-31T16:02:10.977Z,5.43
2022-08-31T16:04:42.825Z,5.10
2022-08-31T16:07:11.913Z,5.40
2022-08-31T16:09:45.971Z,5.17
2022-08-31T16:12:16.583Z,6.20
2022-08-31T16:14:45.266Z,5.53
2022-08-31T16:17:14.388Z,5.50
2022-08-31T16:19:42.892Z,5.60
2022-08-31T16:22:10.865Z,5.90
2022-08-31T16:24:39.635Z,6.17
2022-08-31T16:27:11.359Z,5.60
2022-08-31T16:29:40.812Z,6.10
2022-08-31T16:32:09.365Z,5.50
2022-08-31T16:34:39.293Z,6.30
2022-08-31T16:37:08.463Z,5.83
2022-08-31T16:39:37.560Z,5.53
2022-08-31T16:42:06.823Z,6.13
2022-08-31T16:44:35.510Z,5.47
2022-08-31T16:47:07.920Z,5.97
2022-08-31T16:49:36.018Z,6.40
2022-08-31T16:52:06.940Z,6.07
2022-08-31T16:54:36.358Z,6.37
2022-08-31T16:57:04.265Z,7.00
2022-08-31T16:59:32.183Z,7.00
2022-08-31T17:02:00.055Z,6.20
2022-08-31T17:07:18.920Z,5.70
2022-08-31T17:09:46.968Z,5.50
2022-08-31T17:12:17.105Z,6.20
2022-08-31T17:14:48.249Z,5.77
2022-08-31T17:17:18.536Z,5.50
2022-08-31T17:19:48.610Z,5.30
2022-08-31T17:22:24.553Z,5.40
2022-08-31T17:24:57.396Z,5.90
2022-08-31T17:27:26.859Z,5.67
2022-08-31T17:29:56.453Z,5.93
2022-08-31T17:32:29.161Z,6.33
2022-08-31T17:34:59.241Z,6.07
2022-08-31T17:37:32.616Z,5.83
2022-08-31T17:40:01.109Z,6.17
2022-08-31T17:42:29.135Z,5.87
2022-08-31T17:44:58.831Z,6.23
2022-08-31T17:47:27.052Z,6.43
2022-08-31T17:49:55.132Z,7.07
2022-08-31T17:52:24.344Z,6.60
2022-08-31T17:54:52.339Z,6.60
2022-08-31T17:57:24.857Z,6.13
2022-08-31T17:59:54.649Z,5.87
2022-08-31T18:02:27.627Z,6.00
2022-08-31T18:04:56.161Z,6.10
2022-08-31T18:07:25.460Z,6.17
2022-08-31T18:09:53.761Z,5.80
2022-08-31T18:12:22.747Z,5.93
2022-08-31T18:14:51.146Z,5.87
2022-08-31T18:17:22.274Z,6.13
2022-08-31T18:19:50.575Z,6.03
2022-08-31T18:22:19.711Z,6.23
2022-08-31T18:24:49.143Z,6.60
2022-08-31T18:27:16.940Z,6.90
2022-08-31T18:29:46.223Z,6.47
2022-08-31T18:32:15.126Z,6.60
2022-08-31T18:34:47.115Z,6.30
2022-08-31T18:37:22.028Z,6.13
2022-08-31T18:40:09.078Z,5.47
2022-08-31T18:42:56.876Z,5.33
2022-08-31T18:45:25.937Z,5.67
2022-08-31T18:50:45.433Z,6.13
2022-08-31T18:53:27.563Z,5.80
2022-08-31T18:56:05.516Z,5.67
2022-08-31T18:58:33.409Z,6.13
2022-08-31T19:01:01.314Z,6.10
2022-08-31T19:03:30.079Z,6.40
2022-08-31T19:05:57.953Z,6.43
2022-08-31T19:08:26.491Z,6.57
2022-08-31T19:10:56.306Z,6.47
2022-08-31T19:13:29.821Z,6.60
2022-08-31T19:16:02.126Z,6.53
2022-08-31T19:18:33.779Z,6.20
2022-08-31T19:21:11.667Z,6.33
2022-08-31T19:23:40.572Z,6.20
2022-08-31T19:26:08.403Z,7.00
2022-08-31T19:28:37.772Z,6.70
2022-08-31T19:31:06.574Z,6.30
2022-08-31T19:33:34.523Z,6.90
2022-08-31T19:36:04.509Z,7.53
2022-08-31T19:38:32.652Z,6.60
2022-08-31T19:41:01.456Z,6.73
2022-08-31T19:43:53.741Z,6.70
2022-08-31T19:46:22.362Z,6.57
2022-08-31T19:48:50.653Z,6.67
2022-08-31T19:51:21.918Z,6.80
2022-08-31T19:53:51.000Z,7.10
2022-08-31T19:56:22.077Z,6.93
2022-08-31T19:58:53.397Z,6.47
2022-08-31T20:01:28.206Z,6.43
2022-08-31T20:03:57.043Z,6.90
2022-08-31T20:06:26.296Z,7.03
2022-08-31T20:08:54.755Z,7.03
2022-08-31T20:11:24.576Z,6.60
2022-08-31T20:13:53.143Z,6.97
2022-08-31T20:16:33.281Z,6.50
2022-08-31T20:19:03.964Z,7.10
2022-08-31T20:21:34.642Z,6.80
2022-08-31T20:24:05.642Z,6.60
2022-08-31T20:26:38.264Z,6.77
2022-08-31T20:29:14.186Z,7.43
2022-08-31T20:31:47.069Z,6.97
2022-08-31T20:34:19.405Z,8.00
2022-08-31T20:36:52.214Z,7.70
2022-08-31T20:39:22.805Z,7.07
2022-08-31T20:41:53.080Z,8.47
2022-08-31T20:44:23.609Z,7.60
2022-08-31T20:47:13.235Z,7.90
2022-08-31T20:49:43.634Z,7.60
2022-08-31T20:52:14.364Z,7.63
2022-08-31T20:54:43.896Z,8.13
2022-08-31T20:57:14.116Z,7.97
2022-08-31T20:59:42.536Z,7.57
2022-08-31T21:02:12.745Z,8.13
2022-08-31T21:04:44.653Z,8.20
2022-08-31T21:07:14.546Z,8.67
2022-08-31T21:09:44.449Z,8.77
2022-08-31T21:12:17.789Z,9.47
2022-08-31T21:14:47.176Z,10.13
2022-08-31T21:17:16.603Z,10.07
2022-08-31T21:19:45.629Z,9.27
2022-08-31T21:22:17.153Z,9.33
2022-08-31T21:24:45.220Z,9.53
2022-08-31T21:27:17.720Z,9.93
2022-08-31T21:29:47.088Z,10.00
2022-08-31T21:32:16.680Z,8.77
2022-08-31T21:34:44.572Z,9.63
2022-08-31T21:37:12.557Z,8.70
2022-08-31T21:39:41.103Z,9.30
2022-08-31T21:42:09.017Z,8.97
2022-08-31T21:44:37.444Z,9.63
2022-08-31T21:47:06.980Z,10.13
2022-08-31T21:49:36.289Z,12.33
2022-08-31T21:52:04.313Z,12.30
2022-08-31T21:54:32.144Z,13.67
2022-08-31T21:57:02.133Z,13.57
2022-08-31T21:59:32.664Z,13.90
2022-08-31T22:02:04.084Z,13.50
2022-08-31T22:04:34.162Z,13.83
2022-08-31T22:07:03.625Z,13.80
2022-08-31T22:09:31.738Z,13.37
2022-08-31T22:12:03.847Z,13.27
2022-08-31T22:14:33.752Z,14.17
2022-08-31T22:17:05.465Z,13.23
2022-08-31T22:19:36.283Z,12.90
2022-08-31T22:22:08.552Z,14.37
2022-08-31T22:24:40.834Z,13.50
2022-08-31T22:27:10.673Z,12.70
2022-08-31T22:29:40.380Z,13.77
2022-08-31T22:32:12.016Z,14.63
2022-08-31T22:34:41.433Z,13.70
2022-08-31T22:37:13.802Z,12.60
2022-08-31T22:39:43.412Z,13.30
2022-08-31T22:42:11.959Z,14.13
2022-08-31T22:44:40.583Z,14.37
2022-08-31T22:47:09.356Z,13.40
2022-08-31T22:49:37.397Z,13.87
2022-08-31T22:52:05.694Z,13.13
2022-08-31T22:54:35.594Z,15.47
2022-08-31T22:57:03.383Z,14.37
2022-08-31T22:59:31.302Z,14.10
2022-08-31T23:02:03.487Z,13.60
2022-08-31T23:04:34.328Z,14.40
2022-08-31T23:07:04.216Z,14.70
2022-08-31T23:09:34.366Z,14.97
2022-08-31T23:12:04.770Z,14.27
2022-08-31T23:14:33.609Z,15.27
2022-08-31T23:17:04.006Z,14.97
2022-08-31T23:19:36.612Z,14.60
2022-08-31T23:22:07.511Z,14.43
2022-08-31T23:24:39.451Z,13.93
2022-08-31T23:27:10.602Z,15.07
2022-08-31T23:29:41.400Z,13.10
2022-08-31T23:32:11.121Z,13.17
2022-08-31T23:34:39.343Z,14.20
2022-08-31T23:37:09.812Z,13.43
2022-08-31T23:39:41.462Z,13.83
2022-08-31T23:42:10.252Z,14.23
2022-08-31T23:44:42.162Z,14.90
2022-08-31T23:47:10.927Z,13.80
2022-08-31T23:49:38.823Z,14.47
2022-08-31T23:52:07.232Z,13.97
2022-08-31T23:54:37.305Z,14.33
2022-08-31T23:57:08.449Z,13.80
2022-08-31T23:59:52.357Z,15.23
